createdAt,value
2023-03-14T00:01:36.025Z,18.50
2023-03-14T00:04:05.865Z,18.40
2023-03-14T00:06:32.979Z,18.50
2023-03-14T00:08:59.977Z,18.50
2023-03-14T00:11:27.327Z,18.50
2023-03-14T00:14:12.902Z,18.50
2023-03-14T00:16:40.136Z,18.50
2023-03-14T00:19:07.134Z,18.40
2023-03-14T00:21:36.755Z,18.40
2023-03-14T00:24:03.830Z,18.30
2023-03-14T00:26:30.797Z,18.30
2023-03-14T00:28:57.742Z,18.20
2023-03-14T00:31:25.025Z,18.20
2023-03-14T00:34:10.485Z,18.10
2023-03-14T00:36:37.455Z,18.10
2023-03-14T00:39:04.471Z,18.10
2023-03-14T00:41:31.428Z,18.00
2023-03-14T00:44:16.757Z,18.10
2023-03-14T00:46:43.839Z,18.10
2023-03-14T00:49:29.180Z,18.00
2023-03-14T00:51:56.187Z,17.90
2023-03-14T00:54:23.116Z,17.90
2023-03-14T00:56:50.066Z,18.00
2023-03-14T00:59:18.165Z,18.10
2023-03-14T01:01:45.356Z,18.10
2023-03-14T01:04:32.321Z,18.00
2023-03-14T01:06:59.571Z,17.90
2023-03-14T01:09:26.535Z,17.90
2023-03-14T01:11:53.512Z,17.80
2023-03-14T01:14:20.491Z,17.90
2023-03-14T01:16:54.170Z,18.00
2023-03-14T01:19:21.478Z,18.00
2023-03-14T01:21:48.373Z,18.00
2023-03-14T01:24:33.904Z,17.90
2023-03-14T01:27:00.915Z,17.90
2023-03-14T01:29:48.273Z,17.90
2023-03-14T01:32:15.491Z,17.90
2023-03-14T01:34:42.570Z,17.90
2023-03-14T01:37:12.949Z,17.90
2023-03-14T01:39:40.059Z,17.80
2023-03-14T01:42:07.095Z,17.80
2023-03-14T01:44:54.877Z,17.80
2023-03-14T01:47:22.193Z,17.90
2023-03-14T01:50:11.494Z,17.80
2023-03-14T01:52:44.362Z,17.70
2023-03-14T01:55:15.755Z,17.70
2023-03-14T01:57:47.025Z,17.60
2023-03-14T02:00:20.883Z,17.70
2023-03-14T02:02:51.711Z,17.80
2023-03-14T02:05:24.034Z,17.60
2023-03-14T02:07:54.901Z,17.60
2023-03-14T02:10:25.844Z,17.60
2023-03-14T02:12:55.970Z,17.50
2023-03-14T02:15:23.796Z,17.60
2023-03-14T02:17:52.355Z,17.50
2023-03-14T02:20:26.053Z,17.50
2023-03-14T02:22:53.487Z,17.50
2023-03-14T02:25:41.118Z,17.50
2023-03-14T02:28:09.296Z,17.50
2023-03-14T02:30:54.892Z,17.50
2023-03-14T02:33:24.060Z,17.40
2023-03-14T02:35:59.034Z,17.40
2023-03-14T02:38:38.578Z,17.40
2023-03-14T02:41:23.790Z,17.50
2023-03-14T02:43:50.932Z,17.50
2023-03-14T02:46:36.620Z,17.50
2023-03-14T02:49:08.203Z,17.60
2023-03-14T02:51:36.388Z,17.60
2023-03-14T02:54:06.116Z,17.50
2023-03-14T02:56:33.159Z,17.40
2023-03-14T02:59:00.132Z,17.30
2023-03-14T03:01:45.794Z,17.30
2023-03-14T03:04:12.899Z,17.20
2023-03-14T03:06:48.859Z,17.30
2023-03-14T03:09:18.372Z,17.20
2023-03-14T03:11:57.379Z,17.30
2023-03-14T03:14:24.517Z,17.30
2023-03-14T03:16:51.577Z,17.40
2023-03-14T03:19:18.950Z,17.50
2023-03-14T03:22:04.306Z,17.60
2023-03-14T03:24:31.370Z,17.60
2023-03-14T03:27:16.699Z,17.70
2023-03-14T03:29:43.762Z,17.70
2023-03-14T03:32:10.692Z,17.70
2023-03-14T03:34:37.589Z,17.80
2023-03-14T03:37:04.566Z,17.80
2023-03-14T03:39:31.460Z,17.70
2023-03-14T03:41:58.357Z,17.70
2023-03-14T03:44:25.302Z,17.70
2023-03-14T03:47:10.884Z,17.70
2023-03-14T03:49:38.028Z,17.60
2023-03-14T03:52:13.717Z,17.60
2023-03-14T03:54:40.766Z,17.50
2023-03-14T03:57:07.952Z,17.40
2023-03-14T03:59:35.158Z,17.40
2023-03-14T04:02:21.227Z,17.30
2023-03-14T04:04:48.544Z,17.20
2023-03-14T04:07:15.973Z,17.20
2023-03-14T04:09:43.215Z,17.20
2023-03-14T04:12:12.225Z,17.20
2023-03-14T04:14:39.472Z,17.20
2023-03-14T04:17:06.557Z,17.00
2023-03-14T04:19:33.912Z,17.00
2023-03-14T04:22:00.891Z,17.10
2023-03-14T04:24:27.844Z,17.10
2023-03-14T04:27:13.329Z,17.10
2023-03-14T04:29:40.312Z,17.00
2023-03-14T04:32:26.256Z,17.10
2023-03-14T04:34:53.582Z,17.10
2023-03-14T04:37:20.619Z,17.00
2023-03-14T04:39:47.662Z,17.00
2023-03-14T04:42:14.616Z,17.00
2023-03-14T04:44:59.992Z,17.00
2023-03-14T04:47:27.419Z,16.70
2023-03-14T04:49:54.704Z,16.90
2023-03-14T04:52:21.696Z,16.90
2023-03-14T04:54:48.737Z,17.00
2023-03-14T04:57:18.476Z,17.00
2023-03-14T05:00:00.536Z,17.00
2023-03-14T05:02:27.873Z,17.10
2023-03-14T05:04:54.870Z,17.00
2023-03-14T05:07:21.885Z,17.10
2023-03-14T05:09:49.007Z,17.10
2023-03-14T05:12:16.149Z,17.10
2023-03-14T05:14:49.061Z,17.20
2023-03-14T05:17:16.328Z,17.30
2023-03-14T05:20:01.712Z,17.30
2023-03-14T05:22:28.764Z,17.30
2023-03-14T05:25:00.063Z,17.40
2023-03-14T05:27:27.290Z,17.40
2023-03-14T05:29:54.404Z,17.40
2023-03-14T05:32:21.677Z,17.30
2023-03-14T05:34:48.887Z,17.30
2023-03-14T05:37:15.907Z,17.30
2023-03-14T05:39:42.921Z,17.30
2023-03-14T05:42:10.012Z,17.30
2023-03-14T05:44:55.685Z,17.40
2023-03-14T05:47:23.058Z,17.40
2023-03-14T05:50:05.649Z,17.40
2023-03-14T05:52:32.756Z,17.40
2023-03-14T05:54:59.909Z,17.40
2023-03-14T05:57:27.111Z,17.40
2023-03-14T05:59:54.244Z,17.40
2023-03-14T06:02:21.366Z,17.40
2023-03-14T06:04:48.484Z,17.30
2023-03-14T06:07:15.842Z,17.30
2023-03-14T06:09:42.966Z,17.20
2023-03-14T06:12:29.323Z,17.20
2023-03-14T06:14:56.587Z,17.20
2023-03-14T06:17:42.316Z,17.20
2023-03-14T06:20:10.984Z,17.20
2023-03-14T06:22:39.463Z,17.20
2023-03-14T06:25:07.306Z,17.20
2023-03-14T06:27:35.125Z,17.20
2023-03-14T06:30:05.462Z,17.30
2023-03-14T06:32:32.460Z,17.30
2023-03-14T06:35:02.362Z,17.20
2023-03-14T06:37:30.001Z,17.20
2023-03-14T06:40:03.715Z,17.20
2023-03-14T06:42:30.785Z,17.20
2023-03-14T06:44:57.820Z,17.20
2023-03-14T06:47:24.925Z,17.30
2023-03-14T06:50:11.272Z,17.40
2023-03-14T06:52:42.255Z,17.40
2023-03-14T06:55:27.941Z,17.30
2023-03-14T06:57:55.158Z,17.30
2023-03-14T07:00:31.228Z,17.30
2023-03-14T07:02:58.318Z,17.30
2023-03-14T07:05:25.287Z,16.80
2023-03-14T07:07:52.382Z,16.40
2023-03-14T07:10:19.631Z,16.40
2023-03-14T07:12:46.621Z,16.10
2023-03-14T07:15:18.705Z,15.90
2023-03-14T07:17:51.169Z,15.90
2023-03-14T07:20:18.551Z,15.80
2023-03-14T07:22:48.191Z,15.80
2023-03-14T07:25:15.233Z,15.80
2023-03-14T07:27:44.935Z,15.50
2023-03-14T07:30:12.730Z,15.40
2023-03-14T07:32:39.853Z,15.30
2023-03-14T07:35:07.733Z,15.20
2023-03-14T07:37:34.676Z,14.90
2023-03-14T07:40:01.730Z,14.90
2023-03-14T07:42:28.668Z,14.90
2023-03-14T07:45:04.741Z,15.00
2023-03-14T07:47:31.775Z,15.00
2023-03-14T07:49:58.828Z,15.00
2023-03-14T07:52:29.053Z,14.90
2023-03-14T07:54:56.182Z,14.90
2023-03-14T07:57:23.270Z,14.80
2023-03-14T07:59:50.235Z,14.80
2023-03-14T08:02:23.477Z,14.80
2023-03-14T08:05:10.437Z,14.90
2023-03-14T08:07:37.568Z,15.10
2023-03-14T08:10:23.533Z,15.20
2023-03-14T08:12:52.149Z,15.00
2023-03-14T08:15:19.142Z,14.90
2023-03-14T08:17:46.465Z,14.60
2023-03-14T08:20:16.479Z,14.60
2023-03-14T08:23:02.933Z,14.50
2023-03-14T08:25:30.195Z,14.30
2023-03-14T08:27:57.606Z,14.30
2023-03-14T08:30:24.817Z,14.40
2023-03-14T08:32:54.936Z,14.40
2023-03-14T08:35:21.981Z,14.40
2023-03-14T08:37:53.027Z,14.40
2023-03-14T08:40:20.228Z,14.40
2023-03-14T08:42:47.135Z,14.40
2023-03-14T08:45:16.134Z,14.30
2023-03-14T08:48:01.490Z,14.30
2023-03-14T08:50:28.579Z,14.10
2023-03-14T08:53:13.463Z,13.80
2023-03-14T08:55:40.554Z,13.90
2023-03-14T08:58:07.503Z,13.90
2023-03-14T09:00:34.470Z,14.00
2023-03-14T09:03:01.458Z,14.20
2023-03-14T09:05:28.414Z,14.10
2023-03-14T09:07:58.027Z,14.10
2023-03-14T09:10:37.489Z,14.00
2023-03-14T09:13:04.478Z,14.10
2023-03-14T09:15:31.384Z,14.20
2023-03-14T09:17:58.774Z,14.00
2023-03-14T09:20:25.786Z,14.10
2023-03-14T09:23:01.630Z,14.10
2023-03-14T09:25:28.621Z,14.10
2023-03-14T09:27:55.572Z,14.00
2023-03-14T09:30:22.651Z,13.90
2023-03-14T09:33:08.427Z,13.90
2023-03-14T09:35:35.627Z,13.70
2023-03-14T09:38:21.836Z,13.60
2023-03-14T09:40:49.850Z,13.70
2023-03-14T09:43:17.434Z,13.60
2023-03-14T09:45:47.184Z,13.70
2023-03-14T09:48:21.660Z,13.70
2023-03-14T09:50:56.247Z,13.60
2023-03-14T09:53:32.444Z,13.50
2023-03-14T09:55:59.496Z,13.50
2023-03-14T09:58:27.831Z,13.60
2023-03-14T10:00:57.561Z,13.80
2023-03-14T10:03:33.922Z,13.90
2023-03-14T10:06:01.821Z,14.00
2023-03-14T10:08:28.956Z,13.90
2023-03-14T10:10:56.181Z,13.90
2023-03-14T10:13:29.095Z,13.90
2023-03-14T10:16:05.170Z,13.80
2023-03-14T10:18:35.163Z,13.70
2023-03-14T10:21:31.581Z,13.60
2023-03-14T10:24:28.118Z,13.60
2023-03-14T10:26:59.231Z,13.40
2023-03-14T10:29:26.408Z,13.50
2023-03-14T10:31:55.946Z,13.50
2023-03-14T10:34:40.991Z,13.40
2023-03-14T10:37:18.570Z,13.40
2023-03-14T10:39:54.751Z,13.50
2023-03-14T10:42:32.835Z,13.50
2023-03-14T10:45:39.232Z,13.60
2023-03-14T10:48:29.077Z,13.50
2023-03-14T10:51:17.504Z,13.40
2023-03-14T10:53:50.776Z,13.40
2023-03-14T10:56:37.941Z,13.30
2023-03-14T10:59:12.485Z,13.30
2023-03-14T11:02:05.663Z,13.50
2023-03-14T11:04:41.599Z,13.40
2023-03-14T11:07:34.015Z,13.50
2023-03-14T11:10:34.119Z,13.30
2023-03-14T11:13:48.020Z,13.10
2023-03-14T11:16:27.783Z,13.00
2023-03-14T11:19:12.662Z,13.30
2023-03-14T11:21:49.260Z,13.30
2023-03-14T11:24:45.963Z,13.20
2023-03-14T11:27:28.028Z,13.20
2023-03-14T11:30:40.328Z,13.00
2023-03-14T11:33:45.844Z,13.20
2023-03-14T11:36:21.054Z,13.10
2023-03-14T11:38:53.825Z,13.10
2023-03-14T11:41:32.899Z,13.30
2023-03-14T11:44:05.034Z,13.20
2023-03-14T11:46:41.115Z,13.10
2023-03-14T11:49:18.503Z,13.30
2023-03-14T11:51:51.567Z,13.30
2023-03-14T11:54:59.484Z,13.30
2023-03-14T11:57:26.593Z,13.50
2023-03-14T12:00:19.021Z,13.20
2023-03-14T12:03:13.017Z,13.20
2023-03-14T12:06:14.743Z,13.10
2023-03-14T12:08:47.450Z,13.10
2023-03-14T12:11:40.715Z,13.10
2023-03-14T12:14:24.656Z,13.30
2023-03-14T12:17:08.455Z,13.30
2023-03-14T12:19:44.806Z,13.30
2023-03-14T12:22:28.919Z,13.50
2023-03-14T12:25:18.831Z,13.60
2023-03-14T12:28:16.884Z,13.60
2023-03-14T12:30:44.109Z,13.60
2023-03-14T12:33:13.910Z,13.30
2023-03-14T12:35:51.502Z,13.50
2023-03-14T12:39:02.444Z,13.40
2023-03-14T12:41:52.277Z,13.20
2023-03-14T12:44:31.605Z,13.20
2023-03-14T12:47:19.695Z,13.10
2023-03-14T12:49:59.001Z,13.00
2023-03-14T12:52:43.541Z,12.90
2023-03-14T12:55:33.434Z,12.90
2023-03-14T12:58:31.438Z,13.00
2023-03-14T13:01:04.129Z,13.20
2023-03-14T13:03:47.150Z,13.50
2023-03-14T13:06:34.602Z,13.60
2023-03-14T13:09:28.930Z,13.80
2023-03-14T13:12:01.469Z,13.80
2023-03-14T13:14:32.986Z,13.80
2023-03-14T13:17:25.243Z,13.90
2023-03-14T13:19:57.573Z,13.90
2023-03-14T13:22:31.489Z,13.90
2023-03-14T13:25:07.416Z,14.00
2023-03-14T13:27:36.395Z,14.00
2023-03-14T13:30:45.896Z,14.00
2023-03-14T13:33:32.175Z,14.10
2023-03-14T13:36:03.713Z,14.00
2023-03-14T13:38:58.304Z,14.10
2023-03-14T13:41:34.330Z,14.10
2023-03-14T13:44:07.971Z,14.00
2023-03-14T13:46:58.564Z,14.10
2023-03-14T13:49:27.763Z,14.20
2023-03-14T13:51:54.715Z,14.20
2023-03-14T13:54:23.725Z,14.30
2023-03-14T13:57:01.692Z,14.40
2023-03-14T13:59:31.398Z,14.50
2023-03-14T14:02:00.742Z,14.50
2023-03-14T14:04:28.224Z,14.60
2023-03-14T14:07:02.692Z,14.60
2023-03-14T14:09:44.439Z,14.70
2023-03-14T14:12:19.256Z,14.70
2023-03-14T14:15:01.190Z,14.70
2023-03-14T14:17:42.312Z,14.80
2023-03-14T14:20:32.867Z,14.90
2023-03-14T14:23:02.311Z,14.90
2023-03-14T14:25:31.052Z,14.90
2023-03-14T14:27:58.891Z,15.00
2023-03-14T14:30:31.944Z,15.10
2023-03-14T14:33:20.388Z,15.20
2023-03-14T14:35:58.385Z,15.30
2023-03-14T14:38:44.003Z,15.40
2023-03-14T14:41:12.814Z,15.30
2023-03-14T14:44:00.126Z,15.30
2023-03-14T14:46:31.181Z,15.20
2023-03-14T14:49:21.006Z,15.10
2023-03-14T14:51:52.173Z,15.00
2023-03-14T14:54:48.279Z,15.00
2023-03-14T14:57:21.126Z,14.80
2023-03-14T14:59:52.529Z,14.60
2023-03-14T15:02:48.012Z,14.50
2023-03-14T15:05:20.842Z,14.30
2023-03-14T15:07:48.322Z,14.20
2023-03-14T15:10:23.127Z,14.00
2023-03-14T15:12:50.224Z,14.00
2023-03-14T15:15:18.567Z,13.90
2023-03-14T15:17:45.832Z,13.70
2023-03-14T15:20:19.025Z,13.70
2023-03-14T15:22:46.828Z,13.70
2023-03-14T15:25:36.968Z,13.70
2023-03-14T15:28:00.886Z,13.70
2023-03-14T15:30:27.962Z,13.70
2023-03-14T15:32:54.937Z,13.80
2023-03-14T15:35:21.957Z,13.80
2023-03-14T15:37:49.596Z,13.90
2023-03-14T15:40:17.078Z,14.00
2023-03-14T15:42:44.033Z,14.00
2023-03-14T15:45:11.436Z,14.10
2023-03-14T15:47:38.955Z,14.20
2023-03-14T15:50:06.536Z,14.30
2023-03-14T15:52:33.509Z,14.30
2023-03-14T15:55:01.168Z,14.30
2023-03-14T15:57:28.180Z,14.30
2023-03-14T15:59:55.536Z,14.30
2023-03-14T16:02:22.548Z,14.30
2023-03-14T16:04:52.589Z,14.30
2023-03-14T16:07:19.555Z,14.20
2023-03-14T16:09:46.645Z,14.20
2023-03-14T16:12:13.741Z,14.20
2023-03-14T16:14:43.745Z,14.20
2023-03-14T16:17:13.756Z,14.30
2023-03-14T16:19:40.784Z,14.20
2023-03-14T16:22:07.965Z,14.10
2023-03-14T16:24:34.967Z,14.00
2023-03-14T16:27:01.962Z,14.00
2023-03-14T16:29:31.078Z,14.00
2023-03-14T16:31:58.151Z,14.00
2023-03-14T16:34:25.349Z,13.90
2023-03-14T16:37:11.228Z,14.00
2023-03-14T16:39:56.105Z,13.90
2023-03-14T16:42:25.890Z,14.00
2023-03-14T16:44:53.004Z,14.00
2023-03-14T16:47:19.988Z,13.90
2023-03-14T16:49:46.982Z,13.80
2023-03-14T16:52:14.083Z,13.70
2023-03-14T16:54:43.805Z,13.70
2023-03-14T16:57:19.548Z,13.70
2023-03-14T16:59:46.688Z,13.70
2023-03-14T17:02:13.812Z,13.70
2023-03-14T17:04:42.041Z,13.70
2023-03-14T17:07:27.626Z,13.80
2023-03-14T17:09:55.029Z,13.80
2023-03-14T17:12:40.416Z,13.80
2023-03-14T17:15:08.672Z,13.80
2023-03-14T17:17:54.321Z,13.70
2023-03-14T17:20:21.412Z,13.60
2023-03-14T17:22:48.487Z,13.60
2023-03-14T17:25:15.599Z,13.60
2023-03-14T17:27:44.462Z,13.60
2023-03-14T17:30:13.453Z,13.60
2023-03-14T17:32:40.577Z,13.60
2023-03-14T17:35:07.766Z,13.60
2023-03-14T17:37:34.839Z,13.60
2023-03-14T17:40:04.368Z,13.50
2023-03-14T17:42:50.883Z,13.50
2023-03-14T17:45:18.110Z,13.60
2023-03-14T17:47:45.538Z,13.50
2023-03-14T17:50:12.596Z,13.50
2023-03-14T17:53:00.802Z,13.50
2023-03-14T17:55:27.834Z,13.50
2023-03-14T17:57:54.829Z,13.50
2023-03-14T18:00:24.197Z,13.40
2023-03-14T18:02:51.573Z,13.40
2023-03-14T18:05:18.875Z,13.40
2023-03-14T18:07:45.946Z,13.40
2023-03-14T18:10:14.403Z,13.40
2023-03-14T18:12:41.740Z,13.30
2023-03-14T18:15:09.328Z,13.30
2023-03-14T18:17:36.336Z,13.20
2023-03-14T18:20:05.227Z,13.20
2023-03-14T18:22:33.434Z,13.20
2023-03-14T18:25:00.674Z,13.10
2023-03-14T18:27:46.360Z,13.10
2023-03-14T18:30:14.584Z,13.00
2023-03-14T18:32:41.625Z,13.00
2023-03-14T18:35:11.639Z,13.00
2023-03-14T18:37:57.159Z,13.00
2023-03-14T18:40:24.358Z,12.90
2023-03-14T18:42:51.336Z,12.90
2023-03-14T18:45:18.348Z,12.90
2023-03-14T18:47:45.436Z,12.80
2023-03-14T18:50:12.986Z,12.80
2023-03-14T18:52:58.508Z,12.80
2023-03-14T18:55:25.713Z,12.80
2023-03-14T18:57:53.308Z,12.80
2023-03-14T19:00:20.838Z,12.80
2023-03-14T19:02:48.407Z,12.80
2023-03-14T19:05:15.395Z,12.90
2023-03-14T19:08:02.933Z,12.90
2023-03-14T19:10:32.406Z,12.90
2023-03-14T19:12:59.390Z,12.90
2023-03-14T19:15:26.359Z,12.90
2023-03-14T19:18:11.758Z,13.00
2023-03-14T19:20:43.340Z,13.00
2023-03-14T19:23:14.228Z,12.80
2023-03-14T19:25:45.207Z,12.80
2023-03-14T19:28:12.154Z,12.90
2023-03-14T19:30:39.218Z,12.90
2023-03-14T19:33:14.755Z,12.80
2023-03-14T19:35:42.206Z,12.80
2023-03-14T19:38:09.721Z,12.70
2023-03-14T19:40:38.225Z,12.70
2023-03-14T19:43:06.271Z,12.70
2023-03-14T19:45:36.567Z,12.70
2023-03-14T19:48:06.299Z,12.70
2023-03-14T19:50:36.109Z,12.60
2023-03-14T19:53:04.674Z,12.60
2023-03-14T19:55:35.223Z,12.50
2023-03-14T19:58:02.814Z,12.50
2023-03-14T20:00:30.203Z,12.50
2023-03-14T20:02:57.279Z,12.50
2023-03-14T20:05:24.913Z,12.40
2023-03-14T20:07:52.032Z,12.30
2023-03-14T20:10:24.261Z,12.20
2023-03-14T20:12:51.861Z,12.20
2023-03-14T20:15:21.556Z,12.20
2023-03-14T20:17:51.868Z,12.20
2023-03-14T20:20:19.908Z,12.20
2023-03-14T20:22:49.579Z,12.20
2023-03-14T20:25:35.632Z,12.20
2023-03-14T20:28:04.301Z,12.20
2023-03-14T20:30:50.364Z,12.20
2023-03-14T20:33:19.741Z,12.30
2023-03-14T20:35:59.805Z,12.30
2023-03-14T20:38:28.681Z,12.30
2023-03-14T20:41:00.007Z,12.40
2023-03-14T20:43:27.984Z,12.40
2023-03-14T20:45:56.450Z,12.50
2023-03-14T20:48:24.404Z,12.50
2023-03-14T20:50:52.107Z,12.50
2023-03-14T20:53:19.850Z,12.40
2023-03-14T20:55:47.428Z,12.40
2023-03-14T20:58:14.669Z,12.40
2023-03-14T21:00:50.183Z,12.30
2023-03-14T21:03:18.434Z,12.30
2023-03-14T21:05:49.050Z,12.30
2023-03-14T21:08:19.318Z,12.30
2023-03-14T21:10:50.735Z,12.30
2023-03-14T21:13:18.833Z,12.30
2023-03-14T21:15:46.652Z,12.20
2023-03-14T21:18:13.756Z,12.20
2023-03-14T21:20:42.262Z,12.20
2023-03-14T21:23:11.114Z,12.20
2023-03-14T21:25:38.537Z,12.20
2023-03-14T21:28:05.742Z,12.20
2023-03-14T21:30:34.516Z,12.10
2023-03-14T21:33:01.926Z,12.10
2023-03-14T21:35:32.093Z,12.10
2023-03-14T21:37:59.346Z,12.10
2023-03-14T21:40:26.720Z,12.00
2023-03-14T21:43:13.877Z,12.00
2023-03-14T21:45:41.175Z,12.00
2023-03-14T21:48:08.144Z,11.90
2023-03-14T21:50:53.650Z,11.90
2023-03-14T21:53:20.766Z,11.80
2023-03-14T21:55:48.990Z,11.80
2023-03-14T21:58:15.932Z,11.90
2023-03-14T22:01:05.110Z,11.90
2023-03-14T22:03:34.610Z,11.90
2023-03-14T22:06:04.740Z,11.90
2023-03-14T22:08:31.858Z,11.90
2023-03-14T22:10:58.848Z,11.90
2023-03-14T22:13:25.977Z,11.90
2023-03-14T22:15:53.235Z,11.80
2023-03-14T22:18:20.272Z,11.90
2023-03-14T22:20:47.445Z,11.90
2023-03-14T22:23:15.337Z,11.90
2023-03-14T22:25:43.872Z,11.90
2023-03-14T22:28:11.252Z,11.80
2023-03-14T22:30:38.514Z,11.80
2023-03-14T22:33:24.413Z,11.70
2023-03-14T22:35:53.076Z,11.70
2023-03-14T22:38:20.548Z,11.60
2023-03-14T22:40:48.146Z,11.60
2023-03-14T22:43:15.154Z,11.70
2023-03-14T22:45:47.551Z,11.70
2023-03-14T22:48:15.474Z,11.80
2023-03-14T22:50:42.490Z,11.80
2023-03-14T22:53:27.863Z,11.80
2023-03-14T22:55:59.569Z,11.80
2023-03-14T22:58:27.046Z,11.80
2023-03-14T23:00:54.064Z,11.90
2023-03-14T23:03:21.381Z,11.80
2023-03-14T23:05:51.433Z,11.80
2023-03-14T23:08:18.434Z,11.80
2023-03-14T23:10:48.178Z,11.80
2023-03-14T23:13:33.848Z,11.80
2023-03-14T23:16:01.380Z,11.80
2023-03-14T23:18:29.165Z,11.80
2023-03-14T23:21:13.298Z,11.90
2023-03-14T23:23:59.063Z,12.00
2023-03-14T23:26:27.360Z,12.00
2023-03-14T23:28:54.859Z,12.00
2023-03-14T23:31:22.210Z,12.00
2023-03-14T23:33:50.687Z,12.10
2023-03-14T23:36:22.313Z,12.10
2023-03-14T23:38:49.318Z,12.10
2023-03-14T23:41:16.392Z,12.10
2023-03-14T23:43:46.682Z,12.10
2023-03-14T23:46:25.538Z,12.20
2023-03-14T23:49:13.197Z,12.20
2023-03-14T23:51:40.366Z,12.20
2023-03-14T23:54:07.344Z,12.20
2023-03-14T23:56:34.405Z,12.20
2023-03-14T23:59:16.305Z,12.20
